Time;durP1;ratioP1;P1;durP2;ratioP2;P2;SDS_P1;SDS_P2;PMS_P1;PMS_P2;Temp;Humidity;BMP_temperature;BMP_pressure;BME280_temperature;BME280_humidity;BME280_pressure;Samples;Min_cycle;Max_cycle;Signal;HPM_P1;HPM_P2
2022/11/04 00:01:30;;;;;;;4.53;2.35;;;;;;;;;;4947249;28;20125;-93
2022/11/04 00:03:57;;;;;;;4.60;2.42;;;;;;;;;;4963951;28;20029;-93
2022/11/04 00:06:23;;;;;;;4.25;2.53;;;;;;;;;;4947268;28;20038;-93
2022/11/04 00:08:50;;;;;;;4.53;2.55;;;;;;;;;;4947910;28;20472;-93
2022/11/04 00:13:59;;;;;;;4.00;2.33;;;;;;;;;;4976375;28;20397;-92
2022/11/04 00:19:08;;;;;;;4.60;2.50;;;;;;;;;;4982038;28;20129;-93
2022/11/04 00:29:46;;;;;;;4.10;2.08;;;;;;;;;;4962249;28;20496;-94
2022/11/04 00:34:55;;;;;;;3.85;1.95;;;;;;;;;;4978045;28;20045;-93
2022/11/04 00:37:21;;;;;;;3.58;2.00;;;;;;;;;;4959660;28;20089;-93
2022/11/04 00:39:48;;;;;;;3.00;1.75;;;;;;;;;;4944678;28;20034;-93
2022/11/04 00:42:13;;;;;;;3.05;1.80;;;;;;;;;;4944144;28;20033;-93
2022/11/04 00:44:41;;;;;;;4.43;2.40;;;;;;;;;;4976536;28;20030;-94
2022/11/04 00:47:06;;;;;;;4.80;2.00;;;;;;;;;;4944364;28;20030;-93
2022/11/04 00:49:35;;;;;;;3.58;1.88;;;;;;;;;;4976084;28;20047;-93
2022/11/04 00:52:03;;;;;;;4.00;2.03;;;;;;;;;;4976662;28;20030;-93
2022/11/04 00:54:32;;;;;;;3.90;2.25;;;;;;;;;;4960352;28;20949;-93
2022/11/04 00:57:01;;;;;;;3.03;1.67;;;;;;;;;;4944091;28;20026;-93
2022/11/04 00:59:26;;;;;;;2.90;1.88;;;;;;;;;;4944020;28;20030;-93
2022/11/04 01:01:55;;;;;;;3.20;1.65;;;;;;;;;;4944631;28;20069;-93
2022/11/04 01:04:23;;;;;;;3.33;1.73;;;;;;;;;;4960004;28;20045;-93
2022/11/04 01:06:51;;;;;;;2.67;1.38;;;;;;;;;;4928462;28;20080;-93
2022/11/04 01:09:19;;;;;;;3.83;1.77;;;;;;;;;;4944345;28;20026;-94
2022/11/04 01:11:45;;;;;;;3.70;1.85;;;;;;;;;;4946489;28;20034;-93
2022/11/04 01:14:13;;;;;;;2.85;1.60;;;;;;;;;;4964260;28;20038;-93
2022/11/04 01:16:42;;;;;;;3.40;1.90;;;;;;;;;;4963818;28;20042;-94
2022/11/04 01:19:10;;;;;;;3.42;1.90;;;;;;;;;;4948030;28;20026;-93
2022/11/04 01:21:35;;;;;;;3.55;1.80;;;;;;;;;;4948026;28;20030;-93
2022/11/04 01:24:01;;;;;;;3.17;1.48;;;;;;;;;;4980333;28;20495;-93
2022/11/04 01:26:29;;;;;;;3.88;1.58;;;;;;;;;;4979989;28;20034;-93
2022/11/04 01:28:58;;;;;;;3.15;1.70;;;;;;;;;;4979775;28;20065;-92
2022/11/04 01:31:26;;;;;;;3.15;1.35;;;;;;;;;;4979763;28;20091;-94
2022/11/04 01:33:52;;;;;;;3.42;1.73;;;;;;;;;;4963379;28;20026;-93
2022/11/04 01:36:17;;;;;;;3.88;1.48;;;;;;;;;;4947504;28;20502;-93
2022/11/04 01:38:43;;;;;;;3.85;1.50;;;;;;;;;;4947944;28;20033;-93
2022/11/04 01:41:16;;;;;;;3.67;1.55;;;;;;;;;;4979742;28;20126;-93
2022/11/04 01:44:29;;;;;;;2.50;1.30;;;;;;;;;;4963875;28;20144;-93
2022/11/04 01:46:54;;;;;;;4.30;1.92;;;;;;;;;;4918122;29;20044;-93
2022/11/04 01:49:30;;;;;;;2.85;1.45;;;;;;;;;;4871133;29;20032;-93
2022/11/04 01:52:01;;;;;;;3.20;1.50;;;;;;;;;;4930695;28;20042;-93
2022/11/04 01:54:27;;;;;;;3.78;1.80;;;;;;;;;;4947546;28;20041;-94
2022/11/04 01:56:55;;;;;;;2.80;1.23;;;;;;;;;;4963084;28;20034;-94
2022/11/04 01:59:29;;;;;;;2.47;1.13;;;;;;;;;;4947293;28;20038;-93
2022/11/04 02:02:02;;;;;;;3.45;1.27;;;;;;;;;;4947149;28;20096;-94
2022/11/04 02:04:31;;;;;;;2.85;1.40;;;;;;;;;;4963241;28;20458;-94
2022/11/04 02:07:07;;;;;;;3.05;1.10;;;;;;;;;;4947607;28;20038;-93
2022/11/04 02:09:38;;;;;;;3.53;1.50;;;;;;;;;;4947495;28;20103;-93
2022/11/04 02:14:58;;;;;;;3.22;1.23;;;;;;;;;;4978848;28;19933;-94
2022/11/04 02:18:11;;;;;;;2.60;1.38;;;;;;;;;;4963094;28;20043;-95
2022/11/04 02:21:19;;;;;;;3.20;1.10;;;;;;;;;;4920538;29;20040;-94
2022/11/04 02:24:19;;;;;;;2.28;1.05;;;;;;;;;;4925620;29;20048;-94
2022/11/04 02:27:34;;;;;;;2.97;1.33;;;;;;;;;;4935971;29;20525;-94
2022/11/04 02:30:21;;;;;;;2.38;1.15;;;;;;;;;;4912776;29;20999;-93
2022/11/04 02:33:30;;;;;;;2.50;0.93;;;;;;;;;;4978936;28;20046;-94
2022/11/04 02:36:12;;;;;;;5.25;1.45;;;;;;;;;;4996037;28;20389;-94
2022/11/04 02:38:48;;;;;;;2.63;1.00;;;;;;;;;;4963422;28;20129;-94
2022/11/04 02:41:38;;;;;;;2.45;1.17;;;;;;;;;;4964138;28;20030;-94
2022/11/04 02:44:36;;;;;;;2.22;1.02;;;;;;;;;;4962548;28;20456;-94
2022/11/04 02:47:29;;;;;;;2.60;1.23;;;;;;;;;;4962383;28;20038;-94
2022/11/04 02:50:52;;;;;;;1.63;0.93;;;;;;;;;;4978503;28;20373;-94
2022/11/04 02:53:38;;;;;;;2.00;1.00;;;;;;;;;;4985947;28;20104;-94
2022/11/04 02:56:07;;;;;;;2.13;0.90;;;;;;;;;;4962038;28;20068;-93
2022/11/04 02:58:45;;;;;;;2.60;1.08;;;;;;;;;;4961990;28;20041;-94
2022/11/04 03:01:17;;;;;;;3.10;0.90;;;;;;;;;;4961922;28;20041;-94
2022/11/04 03:04:15;;;;;;;2.60;1.33;;;;;;;;;;4963195;28;20030;-94
2022/11/04 03:06:52;;;;;;;2.67;1.08;;;;;;;;;;4996267;28;20042;-94
2022/11/04 03:09:28;;;;;;;;;;;;;;;;;;4981561;28;20026;-94
2022/11/04 03:12:07;;;;;;;2.30;0.82;;;;;;;;;;4997158;28;19909;-94
2022/11/04 03:15:03;;;;;;;2.03;0.82;;;;;;;;;;4966970;28;20030;-95
2022/11/04 03:17:39;;;;;;;2.42;1.10;;;;;;;;;;4981910;28;20034;-94
2022/11/04 03:20:17;;;;;;;2.30;0.80;;;;;;;;;;4982882;28;20423;-94
2022/11/04 03:22:59;;;;;;;2.03;0.77;;;;;;;;;;4997979;28;20087;-94
2022/11/04 03:25:39;;;;;;;2.38;1.10;;;;;;;;;;4965502;28;20452;-94
2022/11/04 03:28:39;;;;;;;1.88;0.80;;;;;;;;;;4963892;28;20064;-93
2022/11/04 03:31:33;;;;;;;1.70;0.80;;;;;;;;;;4961900;28;20432;-94
2022/11/04 03:34:07;;;;;;;2.28;0.93;;;;;;;;;;4962060;28;20035;-94
2022/11/04 03:36:53;;;;;;;2.55;0.95;;;;;;;;;;4962796;28;20074;-93
2022/11/04 03:39:26;;;;;;;2.08;0.88;;;;;;;;;;4945903;28;20036;-94
2022/11/04 03:41:58;;;;;;;1.83;0.88;;;;;;;;;;4945771;28;20402;-93
2022/11/04 03:44:28;;;;;;;2.97;0.90;;;;;;;;;;4929891;28;20832;-93
2022/11/04 03:47:00;;;;;;;2.25;0.90;;;;;;;;;;4945766;28;20039;-94
2022/11/04 03:49:33;;;;;;;3.15;0.98;;;;;;;;;;4962436;28;20081;-93
2022/11/04 03:52:04;;;;;;;2.73;0.70;;;;;;;;;;4945729;28;20100;-94
2022/11/04 03:54:34;;;;;;;3.47;1.35;;;;;;;;;;4929748;28;20288;-93
2022/11/04 03:57:13;;;;;;;1.80;0.65;;;;;;;;;;4945215;28;20444;-93
2022/11/04 04:00:10;;;;;;;3.38;1.00;;;;;;;;;;4993976;28;20381;-93
2022/11/04 04:03:15;;;;;;;1.20;0.50;;;;;;;;;;4976980;28;20037;-94
2022/11/04 04:05:56;;;;;;;2.45;0.80;;;;;;;;;;4961099;28;20038;-94
2022/11/04 04:09:14;;;;;;;2.90;0.95;;;;;;;;;;4947870;28;20117;-94
2022/11/04 04:12:16;;;;;;;2.08;0.70;;;;;;;;;;4976971;28;20038;-94
2022/11/04 04:14:50;;;;;;;2.25;1.02;;;;;;;;;;4940765;28;20141;-94
2022/11/04 04:17:50;;;;;;;3.45;0.70;;;;;;;;;;4929434;28;20042;-93
2022/11/04 04:20:23;;;;;;;1.70;0.80;;;;;;;;;;4955497;28;20039;-94
2022/11/04 04:29:08;;;;;;;2.45;0.55;;;;;;;;;;4962649;28;20038;-93
2022/11/04 04:31:49;;;;;;;2.08;0.70;;;;;;;;;;4944867;28;20114;-94
2022/11/04 04:34:25;;;;;;;1.63;0.60;;;;;;;;;;4932520;28;20030;-94
2022/11/04 04:37:20;;;;;;;1.75;0.60;;;;;;;;;;4962271;28;20373;-93
2022/11/04 04:45:55;;;;;;;1.15;0.40;;;;;;;;;;4987981;28;20030;-93
2022/11/04 04:48:30;;;;;;;2.33;0.90;;;;;;;;;;4964358;28;20388;-93
2022/11/04 04:51:04;;;;;;;1.45;0.50;;;;;;;;;;4948371;28;20029;-93
2022/11/04 04:53:39;;;;;;;1.88;0.68;;;;;;;;;;4980836;28;20040;-93
2022/11/04 04:56:12;;;;;;;1.58;0.60;;;;;;;;;;4947918;28;20499;-94
2022/11/04 04:58:43;;;;;;;2.45;0.77;;;;;;;;;;4980242;28;20380;-93
2022/11/04 05:01:14;;;;;;;1.80;0.55;;;;;;;;;;4963561;28;20045;-94
2022/11/04 05:03:46;;;;;;;1.50;0.50;;;;;;;;;;4980117;28;20518;-94
2022/11/04 05:06:14;;;;;;;2.35;0.90;;;;;;;;;;4947876;28;20123;-94
2022/11/04 05:08:44;;;;;;;2.03;0.70;;;;;;;;;;4964035;28;20034;-94
2022/11/04 05:11:12;;;;;;;1.45;0.50;;;;;;;;;;4943845;28;20030;-92
2022/11/04 05:13:40;;;;;;;2.97;0.60;;;;;;;;;;4960075;28;20133;-94
2022/11/04 05:16:12;;;;;;;2.35;0.70;;;;;;;;;;4945164;28;20452;-93
2022/11/04 05:18:47;;;;;;;1.40;0.50;;;;;;;;;;4961451;28;20042;-93
2022/11/04 05:21:18;;;;;;;1.48;0.60;;;;;;;;;;4944611;28;20027;-93
2022/11/04 05:23:50;;;;;;;2.17;0.82;;;;;;;;;;4960232;28;20525;-93
2022/11/04 05:26:18;;;;;;;1.92;0.47;;;;;;;;;;4943872;28;20515;-93
2022/11/04 05:28:47;;;;;;;1.42;0.70;;;;;;;;;;4944088;28;20397;-93
2022/11/04 05:31:21;;;;;;;1.45;0.70;;;;;;;;;;4976645;28;20027;-94
2022/11/04 05:33:52;;;;;;;1.73;0.50;;;;;;;;;;4944161;28;20172;-93
2022/11/04 05:36:28;;;;;;;2.40;0.80;;;;;;;;;;4945484;28;20100;-93
2022/11/04 05:38:59;;;;;;;1.90;0.50;;;;;;;;;;4976449;28;20030;-93
2022/11/04 05:41:28;;;;;;;2.20;0.60;;;;;;;;;;4959710;28;20026;-93
2022/11/04 05:44:00;;;;;;;2.63;0.75;;;;;;;;;;4943793;28;20421;-93
2022/11/04 05:46:35;;;;;;;2.97;0.85;;;;;;;;;;4944970;28;20026;-93
2022/11/04 05:49:22;;;;;;;1.52;0.40;;;;;;;;;;4944158;28;20037;-93
2022/11/04 05:51:54;;;;;;;3.00;0.80;;;;;;;;;;4947464;28;20030;-93
2022/11/04 05:54:23;;;;;;;1.85;0.70;;;;;;;;;;4947466;28;20396;-93
2022/11/04 05:56:57;;;;;;;1.30;0.50;;;;;;;;;;4964714;28;20037;-93
2022/11/04 05:59:30;;;;;;;2.55;0.95;;;;;;;;;;4950455;28;20029;-93
2022/11/04 06:02:02;;;;;;;1.35;0.50;;;;;;;;;;4982720;28;20045;-93
2022/11/04 06:04:32;;;;;;;1.48;0.40;;;;;;;;;;4966672;28;20033;-92
2022/11/04 06:07:00;;;;;;;1.60;0.50;;;;;;;;;;4966757;28;20505;-93
2022/11/04 06:09:40;;;;;;;3.03;0.80;;;;;;;;;;4950532;28;20404;-94
2022/11/04 06:12:16;;;;;;;2.75;0.68;;;;;;;;;;4970548;28;20053;-93
2022/11/04 06:14:47;;;;;;;1.73;0.80;;;;;;;;;;4950508;28;20116;-93
2022/11/04 06:17:18;;;;;;;2.10;0.65;;;;;;;;;;4982348;28;20369;-94
2022/11/04 06:19:54;;;;;;;1.27;0.35;;;;;;;;;;4966308;28;20100;-93
2022/11/04 06:22:30;;;;;;;1.48;0.43;;;;;;;;;;4966628;28;20033;-93
2022/11/04 06:25:02;;;;;;;3.33;0.55;;;;;;;;;;4982268;28;20121;-92
2022/11/04 06:27:42;;;;;;;2.03;0.60;;;;;;;;;;4982161;28;20457;-93
2022/11/04 06:30:11;;;;;;;1.20;0.57;;;;;;;;;;4967034;28;20034;-94
2022/11/04 06:32:44;;;;;;;2.92;0.85;;;;;;;;;;4966773;28;20496;-93
2022/11/04 06:35:24;;;;;;;2.08;0.70;;;;;;;;;;4950484;28;20076;-93
2022/11/04 06:38:02;;;;;;;2.88;0.50;;;;;;;;;;4966959;28;20034;-94
2022/11/04 06:41:07;;;;;;;2.13;0.63;;;;;;;;;;4979093;28;20539;-94
2022/11/04 06:45:14;;;;;;;0.77;0.43;;;;;;;;;;4992760;28;20500;-95
2022/11/04 06:49:35;;;;;;;1.80;0.50;;;;;;;;;;4916029;29;20068;-96
2022/11/04 06:52:56;;;;;;;1.60;0.60;;;;;;;;;;4933060;29;20054;-94
2022/11/04 06:56:35;;;;;;;2.55;0.85;;;;;;;;;;4917376;29;20078;-95
2022/11/04 06:59:30;;;;;;;1.13;0.50;;;;;;;;;;4918401;29;20047;-94
2022/11/04 07:02:02;;;;;;;2.50;0.47;;;;;;;;;;4888130;29;20474;-94
2022/11/04 07:04:34;;;;;;;1.67;0.55;;;;;;;;;;4904161;29;20036;-94
2022/11/04 07:07:25;;;;;;;1.42;0.50;;;;;;;;;;4892982;29;20466;-95
2022/11/04 07:10:16;;;;;;;1.20;0.40;;;;;;;;;;4900902;29;20067;-94
2022/11/04 07:13:11;;;;;;;1.83;0.50;;;;;;;;;;4916220;29;20048;-95
2022/11/04 07:16:25;;;;;;;1.20;0.50;;;;;;;;;;4939844;29;20039;-94
2022/11/04 07:18:58;;;;;;;1.85;0.52;;;;;;;;;;4909415;28;20043;-89
2022/11/04 07:21:25;;;;;;;1.63;0.47;;;;;;;;;;4940225;28;20043;-89
2022/11/04 07:24:22;;;;;;;2.05;0.82;;;;;;;;;;4934456;28;20394;-91
2022/11/04 07:31:21;;;;;;;4.07;1.00;;;;;;;;;;4973854;28;20050;-95
2022/11/04 07:33:50;;;;;;;4.00;0.90;;;;;;;;;;4977646;28;20415;-93
2022/11/04 07:36:56;;;;;;;4.75;1.27;;;;;;;;;;4966744;28;20499;-92
2022/11/04 07:39:43;;;;;;;6.60;1.25;;;;;;;;;;5013706;28;20439;-93
2022/11/04 07:43:30;;;;;;;6.10;1.63;;;;;;;;;;4949353;29;20101;-94
2022/11/04 07:46:32;;;;;;;6.32;1.25;;;;;;;;;;4952145;28;20501;-93
2022/11/04 07:50:13;;;;;;;4.55;1.30;;;;;;;;;;4941335;28;20041;-94
2022/11/04 07:54:10;;;;;;;6.00;1.33;;;;;;;;;;4968704;28;20111;-94
2022/11/04 07:58:01;;;;;;;;;;;;;;;;;;4896630;29;20143;-94
2022/11/04 08:01:22;;;;;;;4.75;1.60;;;;;;;;;;4881365;29;20324;-94
2022/11/04 08:05:00;;;;;;;3.83;1.30;;;;;;;;;;4881286;29;20097;-94
2022/11/04 08:08:32;;;;;;;3.72;1.50;;;;;;;;;;4856961;29;20514;-93
2022/11/04 08:11:09;;;;;;;4.22;1.48;;;;;;;;;;4858925;29;20548;-96
2022/11/04 08:14:29;;;;;;;4.68;1.50;;;;;;;;;;4833559;29;20056;-95
2022/11/04 08:18:22;;;;;;;4.82;1.50;;;;;;;;;;4853341;29;20037;-94
2022/11/04 08:21:30;;;;;;;6.75;2.70;;;;;;;;;;4913620;29;20052;-93
2022/11/04 08:24:59;;;;;;;19.80;7.75;;;;;;;;;;4914532;29;20566;-94
2022/11/04 08:27:52;;;;;;;53.05;25.60;;;;;;;;;;4899358;29;20064;-93
2022/11/04 08:30:47;;;;;;;70.32;32.13;;;;;;;;;;4869315;29;20580;-92
2022/11/04 08:33:31;;;;;;;59.67;29.00;;;;;;;;;;4897232;29;20538;-93
2022/11/04 08:36:59;;;;;;;67.00;32.33;;;;;;;;;;4868699;29;20426;-92
2022/11/04 08:40:39;;;;;;;90.05;41.28;;;;;;;;;;4901469;29;20460;-92
2022/11/04 08:44:52;;;;;;;217.25;112.68;;;;;;;;;;4879739;29;20062;-92
2022/11/04 08:48:44;;;;;;;240.63;130.23;;;;;;;;;;4928934;28;20417;-92
2022/11/04 08:51:38;;;;;;;318.52;190.68;;;;;;;;;;4954523;28;20039;-92
2022/11/04 08:54:56;;;;;;;344.15;204.27;;;;;;;;;;4943694;28;20125;-92
2022/11/04 08:58:24;;;;;;;482.30;309.33;;;;;;;;;;4992923;28;20030;-92
2022/11/04 09:00:54;;;;;;;524.10;334.65;;;;;;;;;;4976680;28;20034;-89
2022/11/04 09:03:21;;;;;;;513.55;326.95;;;;;;;;;;4959744;28;20046;-86
2022/11/04 09:05:48;;;;;;;468.48;294.52;;;;;;;;;;4943409;28;20026;-87
2022/11/04 09:08:15;;;;;;;459.45;284.60;;;;;;;;;;4959658;28;20051;-87
2022/11/04 09:10:44;;;;;;;442.73;272.63;;;;;;;;;;4955984;28;20030;-87
2022/11/04 09:13:10;;;;;;;435.55;277.60;;;;;;;;;;4946650;28;20042;-87
2022/11/04 09:15:37;;;;;;;421.60;266.52;;;;;;;;;;4978871;28;20442;-88
2022/11/04 09:18:05;;;;;;;413.45;260.60;;;;;;;;;;4978604;28;20026;-89
2022/11/04 09:20:31;;;;;;;404.13;250.98;;;;;;;;;;4978820;28;20444;-89
2022/11/04 09:22:59;;;;;;;396.65;241.90;;;;;;;;;;4963042;28;20423;-89
2022/11/04 09:25:24;;;;;;;378.75;230.38;;;;;;;;;;4961095;28;20057;-85
2022/11/04 09:27:52;;;;;;;363.00;218.10;;;;;;;;;;4961710;28;20037;-85
2022/11/04 09:30:29;;;;;;;346.75;209.00;;;;;;;;;;4940927;28;20030;-85
2022/11/04 09:33:00;;;;;;;324.02;193.50;;;;;;;;;;4961700;28;20061;-84
2022/11/04 09:35:28;;;;;;;307.50;189.45;;;;;;;;;;4962137;28;20030;-86
2022/11/04 09:37:53;;;;;;;316.27;189.38;;;;;;;;;;4963278;28;20092;-85
2022/11/04 09:40:21;;;;;;;289.52;171.60;;;;;;;;;;4978776;28;20029;-84
2022/11/04 09:43:20;;;;;;;281.77;168.70;;;;;;;;;;4981693;28;20472;-86
2022/11/04 09:45:46;;;;;;;259.77;151.32;;;;;;;;;;4981740;28;20036;-88
2022/11/04 09:48:24;;;;;;;248.70;149.45;;;;;;;;;;4949313;28;20124;-86
2022/11/04 09:50:57;;;;;;;262.90;148.65;;;;;;;;;;4964507;28;20334;-87
2022/11/04 09:53:27;;;;;;;245.07;140.40;;;;;;;;;;4965463;28;20034;-87
2022/11/04 09:55:56;;;;;;;224.40;133.60;;;;;;;;;;4937029;28;20113;-86
2022/11/04 09:58:21;;;;;;;227.43;133.85;;;;;;;;;;4960716;28;20030;-88
2022/11/04 10:01:12;;;;;;;206.95;122.32;;;;;;;;;;4945180;28;20037;-88
2022/11/04 10:04:00;;;;;;;201.48;120.43;;;;;;;;;;4961141;28;20074;-88
2022/11/04 10:06:39;;;;;;;208.18;118.70;;;;;;;;;;4978307;28;20094;-88
2022/11/04 10:09:16;;;;;;;200.95;118.90;;;;;;;;;;4945731;28;20042;-88
2022/11/04 10:11:44;;;;;;;186.60;112.30;;;;;;;;;;4980097;28;20552;-88
2022/11/04 10:14:23;;;;;;;191.57;112.32;;;;;;;;;;4964429;28;20053;-88
2022/11/04 10:17:05;;;;;;;181.32;108.32;;;;;;;;;;4982776;28;20498;-89
2022/11/04 10:19:35;;;;;;;203.50;137.13;;;;;;;;;;4962420;28;20049;-88
2022/11/04 10:22:16;;;;;;;192.15;120.13;;;;;;;;;;4946259;28;20348;-88
2022/11/04 10:24:47;;;;;;;186.23;112.30;;;;;;;;;;4945953;28;20037;-88
2022/11/04 10:27:16;;;;;;;171.63;106.07;;;;;;;;;;4945769;28;20035;-89
2022/11/04 10:29:46;;;;;;;164.25;103.43;;;;;;;;;;4946914;28;20026;-88
2022/11/04 10:32:49;;;;;;;160.18;96.82;;;;;;;;;;4965660;28;20412;-89
2022/11/04 10:35:27;;;;;;;156.55;97.20;;;;;;;;;;4980122;28;20576;-91
2022/11/04 10:37:52;;;;;;;152.05;94.85;;;;;;;;;;4981646;28;20069;-90
2022/11/04 10:40:31;;;;;;;149.18;92.95;;;;;;;;;;4948814;28;20109;-90
2022/11/04 10:42:57;;;;;;;141.88;88.65;;;;;;;;;;4949347;28;20029;-90
2022/11/04 10:45:28;;;;;;;138.85;85.35;;;;;;;;;;4964152;28;20064;-89
2022/11/04 10:48:02;;;;;;;123.65;78.20;;;;;;;;;;4949603;28;20025;-89
2022/11/04 10:50:40;;;;;;;116.68;77.13;;;;;;;;;;4949241;28;20029;-88
2022/11/04 10:53:21;;;;;;;118.10;73.25;;;;;;;;;;4948864;28;20045;-89
2022/11/04 10:55:50;;;;;;;123.90;74.77;;;;;;;;;;4964974;28;20053;-88
2022/11/04 10:58:31;;;;;;;119.28;69.80;;;;;;;;;;4980327;28;20084;-86
2022/11/04 11:00:58;;;;;;;107.55;67.32;;;;;;;;;;4964035;28;20072;-87
2022/11/04 11:03:27;;;;;;;112.10;69.70;;;;;;;;;;4964225;28;20554;-87
2022/11/04 11:05:53;;;;;;;104.10;64.38;;;;;;;;;;4963368;28;20124;-87
2022/11/04 11:08:29;;;;;;;105.03;62.33;;;;;;;;;;4948437;28;20057;-87
2022/11/04 11:10:55;;;;;;;106.65;65.40;;;;;;;;;;4964192;28;20559;-86
2022/11/04 11:13:32;;;;;;;101.65;63.72;;;;;;;;;;4963926;28;20034;-87
2022/11/04 11:16:04;;;;;;;96.28;62.42;;;;;;;;;;4948861;28;20072;-87
2022/11/04 11:18:30;;;;;;;98.85;59.70;;;;;;;;;;4980036;28;20033;-87
2022/11/04 11:21:11;;;;;;;95.78;58.78;;;;;;;;;;4948350;28;20550;-87
2022/11/04 11:23:56;;;;;;;94.80;57.70;;;;;;;;;;4980187;28;20115;-86
2022/11/04 11:26:28;;;;;;;94.72;57.08;;;;;;;;;;4966149;28;20566;-86
2022/11/04 11:29:00;;;;;;;;;;;;;;;;;;4963655;28;20033;-87
2022/11/04 11:31:32;;;;;;;84.65;53.70;;;;;;;;;;5001518;28;20008;-86
2022/11/04 11:34:05;;;;;;;;;;;;;;;;;;4981178;28;20528;-86
2022/11/04 11:36:31;;;;;;;87.10;53.05;;;;;;;;;;4980061;28;19947;-86
2022/11/04 11:39:10;;;;;;;84.47;53.83;;;;;;;;;;4979423;28;20452;-86
2022/11/04 11:41:47;;;;;;;84.90;53.88;;;;;;;;;;4981140;28;20061;-86
2022/11/04 11:44:46;;;;;;;76.35;48.08;;;;;;;;;;4979642;28;20064;-86
2022/11/04 11:47:24;;;;;;;80.18;50.33;;;;;;;;;;4960331;28;20053;-84
2022/11/04 11:50:12;;;;;;;74.88;47.92;;;;;;;;;;4995609;28;20038;-86
2022/11/04 11:52:38;;;;;;;99.78;67.88;;;;;;;;;;4963923;28;20046;-87
2022/11/04 11:55:18;;;;;;;84.40;59.20;;;;;;;;;;4946851;28;20026;-86
2022/11/04 11:58:05;;;;;;;81.72;52.28;;;;;;;;;;4963422;28;20357;-86
2022/11/04 12:00:31;;;;;;;76.10;51.13;;;;;;;;;;4962686;28;20052;-86
2022/11/04 12:03:14;;;;;;;78.20;50.38;;;;;;;;;;4946508;28;20580;-86
2022/11/04 12:06:02;;;;;;;72.65;47.13;;;;;;;;;;4963117;28;20034;-86
2022/11/04 12:08:41;;;;;;;75.68;49.75;;;;;;;;;;4960887;28;20084;-86
2022/11/04 12:11:12;;;;;;;70.13;46.70;;;;;;;;;;4955985;28;20065;-86
2022/11/04 12:13:50;;;;;;;69.85;45.72;;;;;;;;;;4959654;28;20617;-86
2022/11/04 12:16:37;;;;;;;67.45;44.08;;;;;;;;;;4943125;28;20043;-85
2022/11/04 12:19:14;;;;;;;65.57;44.33;;;;;;;;;;4964779;28;20034;-85
2022/11/04 12:22:02;;;;;;;67.50;41.97;;;;;;;;;;4959567;28;20049;-85
2022/11/04 12:24:54;;;;;;;66.30;41.05;;;;;;;;;;4951893;28;20042;-86
2022/11/04 12:27:19;;;;;;;60.70;39.80;;;;;;;;;;4942669;28;20078;-86
2022/11/04 12:30:03;;;;;;;60.47;39.70;;;;;;;;;;4959980;28;20042;-86
2022/11/04 12:32:43;;;;;;;60.47;39.15;;;;;;;;;;4978836;28;20042;-86
2022/11/04 12:35:21;;;;;;;61.50;39.78;;;;;;;;;;4962381;28;20026;-86
2022/11/04 12:38:08;;;;;;;57.65;37.88;;;;;;;;;;4962652;28;20087;-88
2022/11/04 12:41:22;;;;;;;55.47;35.75;;;;;;;;;;4963344;28;20029;-92
2022/11/04 12:43:53;;;;;;;53.28;36.25;;;;;;;;;;4954369;28;20113;-92
2022/11/04 12:46:34;;;;;;;53.38;35.30;;;;;;;;;;4969157;28;20042;-94
2022/11/04 12:49:05;;;;;;;55.00;35.17;;;;;;;;;;4943931;28;20125;-94
2022/11/04 12:51:43;;;;;;;54.00;33.05;;;;;;;;;;4971681;28;20540;-92
2022/11/04 12:54:46;;;;;;;49.55;31.35;;;;;;;;;;4975424;28;20044;-91
2022/11/04 12:57:17;;;;;;;51.97;31.77;;;;;;;;;;4972940;28;20030;-91
2022/11/04 12:59:59;;;;;;;47.35;31.95;;;;;;;;;;4975470;28;20485;-90
2022/11/04 13:02:29;;;;;;;46.00;30.98;;;;;;;;;;4959647;28;20082;-90
2022/11/04 13:04:58;;;;;;;44.63;29.55;;;;;;;;;;4943547;28;20069;-90
2022/11/04 13:07:29;;;;;;;45.72;30.63;;;;;;;;;;4961126;28;20027;-90
2022/11/04 13:09:56;;;;;;;44.45;29.73;;;;;;;;;;4950651;28;20033;-89
2022/11/04 13:12:37;;;;;;;43.22;27.50;;;;;;;;;;4950787;28;20120;-89
2022/11/04 13:15:03;;;;;;;40.35;27.70;;;;;;;;;;4966572;28;20053;-89
2022/11/04 13:17:30;;;;;;;44.67;26.77;;;;;;;;;;4980445;28;20599;-89
2022/11/04 13:19:58;;;;;;;41.47;26.00;;;;;;;;;;4932040;28;20425;-88
2022/11/04 13:22:31;;;;;;;39.40;26.77;;;;;;;;;;4947199;28;20035;-88
2022/11/04 13:25:05;;;;;;;38.90;25.17;;;;;;;;;;4932037;28;20034;-88
2022/11/04 13:27:33;;;;;;;58.08;44.47;;;;;;;;;;4947029;28;20061;-88
2022/11/04 13:30:20;;;;;;;56.63;43.25;;;;;;;;;;4950022;28;20095;-89
2022/11/04 13:33:13;;;;;;;54.67;40.42;;;;;;;;;;4964431;28;20065;-86
2022/11/04 13:36:00;;;;;;;52.50;37.53;;;;;;;;;;4968668;28;20113;-87
2022/11/04 13:38:46;;;;;;;45.53;33.65;;;;;;;;;;4996521;28;20031;-87
2022/11/04 13:41:49;;;;;;;45.22;32.45;;;;;;;;;;4965744;28;20057;-87
2022/11/04 13:44:25;;;;;;;41.70;30.90;;;;;;;;;;4981708;28;20022;-87
2022/11/04 13:46:52;;;;;;;40.90;29.13;;;;;;;;;;4948629;28;20033;-88
2022/11/04 13:49:22;;;;;;;40.55;28.00;;;;;;;;;;4946215;28;20450;-87
2022/11/04 13:52:06;;;;;;;40.08;28.13;;;;;;;;;;4962373;28;20041;-88
2022/11/04 13:54:38;;;;;;;37.85;26.45;;;;;;;;;;4944261;28;20026;-87
2022/11/04 13:57:16;;;;;;;38.00;24.83;;;;;;;;;;4946632;28;20041;-88
2022/11/04 13:59:43;;;;;;;34.25;24.65;;;;;;;;;;4967006;28;20034;-87
2022/11/04 14:02:11;;;;;;;38.25;25.17;;;;;;;;;;4946170;28;20030;-86
2022/11/04 14:04:43;;;;;;;37.58;23.40;;;;;;;;;;4961963;28;20031;-89
2022/11/04 14:07:10;;;;;;;38.05;23.98;;;;;;;;;;4946308;28;20107;-88
2022/11/04 14:09:41;;;;;;;32.50;21.10;;;;;;;;;;4946254;28;20030;-89
2022/11/04 14:12:12;;;;;;;33.47;22.45;;;;;;;;;;4962325;28;20088;-89
2022/11/04 14:14:38;;;;;;;31.70;20.92;;;;;;;;;;4962493;28;20037;-89
2022/11/04 14:17:06;;;;;;;32.35;20.02;;;;;;;;;;4962613;28;20030;-87
2022/11/04 14:19:46;;;;;;;30.27;20.80;;;;;;;;;;4980395;28;20131;-88
2022/11/04 14:22:15;;;;;;;26.17;17.85;;;;;;;;;;4965238;28;20045;-88
2022/11/04 14:24:41;;;;;;;29.55;19.85;;;;;;;;;;4965027;28;20120;-88
2022/11/04 14:27:25;;;;;;;33.55;20.90;;;;;;;;;;4948814;28;20030;-88
2022/11/04 14:29:51;;;;;;;34.13;19.33;;;;;;;;;;4947227;28;20036;-88
2022/11/04 14:32:24;;;;;;;30.65;18.08;;;;;;;;;;4945942;28;20050;-87
2022/11/04 14:34:57;;;;;;;26.00;16.67;;;;;;;;;;4946538;28;20031;-87
2022/11/04 14:37:24;;;;;;;24.70;16.48;;;;;;;;;;4945538;28;20476;-88
2022/11/04 14:39:55;;;;;;;25.77;16.17;;;;;;;;;;4942896;28;20022;-87
2022/11/04 14:42:40;;;;;;;26.05;15.75;;;;;;;;;;4965178;28;20041;-87
2022/11/04 14:45:07;;;;;;;23.20;15.45;;;;;;;;;;4997336;28;20449;-87
2022/11/04 14:47:32;;;;;;;24.60;16.13;;;;;;;;;;4949079;28;20076;-87
2022/11/04 14:49:57;;;;;;;23.33;15.60;;;;;;;;;;4948759;28;20030;-87
2022/11/04 14:52:25;;;;;;;22.67;15.45;;;;;;;;;;4980729;28;20033;-87
2022/11/04 14:54:54;;;;;;;23.63;14.88;;;;;;;;;;4964368;28;20037;-86
2022/11/04 14:57:20;;;;;;;22.58;14.77;;;;;;;;;;4948711;28;20053;-89
2022/11/04 14:59:46;;;;;;;21.77;13.00;;;;;;;;;;4945092;28;20026;-89
2022/11/04 15:02:15;;;;;;;21.08;13.45;;;;;;;;;;4963615;28;20053;-89
2022/11/04 15:04:46;;;;;;;20.02;14.40;;;;;;;;;;4969501;28;20031;-88
2022/11/04 15:07:35;;;;;;;17.10;12.52;;;;;;;;;;4955511;28;20032;-89
2022/11/04 15:10:02;;;;;;;19.23;12.02;;;;;;;;;;4943023;28;20046;-89
2022/11/04 15:15:43;;;;;;;23.48;12.27;;;;;;;;;;4962864;28;20034;-90
2022/11/04 15:18:18;;;;;;;21.02;12.55;;;;;;;;;;4961160;28;20065;-92
2022/11/04 15:21:05;;;;;;;20.15;12.20;;;;;;;;;;4947908;28;20484;-92
2022/11/04 15:23:34;;;;;;;20.33;11.45;;;;;;;;;;4963619;28;20089;-91
2022/11/04 15:26:01;;;;;;;17.88;11.88;;;;;;;;;;4944643;28;20076;-91
2022/11/04 15:28:28;;;;;;;17.10;10.50;;;;;;;;;;4945325;28;20030;-91
2022/11/04 15:30:59;;;;;;;22.10;10.93;;;;;;;;;;4945188;28;20030;-92
2022/11/04 15:33:24;;;;;;;19.25;10.57;;;;;;;;;;4929566;28;20133;-92
2022/11/04 15:35:50;;;;;;;17.73;10.20;;;;;;;;;;4930274;28;20489;-91
2022/11/04 15:38:15;;;;;;;17.17;9.20;;;;;;;;;;4945379;28;20080;-91
2022/11/04 15:40:43;;;;;;;17.67;9.75;;;;;;;;;;4963659;28;20087;-91
2022/11/04 15:43:08;;;;;;;16.17;10.23;;;;;;;;;;4947790;28;20096;-91
2022/11/04 15:45:36;;;;;;;17.50;9.57;;;;;;;;;;4947638;28;20476;-91
2022/11/04 15:48:24;;;;;;;16.63;9.13;;;;;;;;;;4946902;28;20029;-91
2022/11/04 15:50:59;;;;;;;14.30;8.75;;;;;;;;;;4944682;28;20038;-91
2022/11/04 15:53:24;;;;;;;14.50;9.70;;;;;;;;;;4965804;28;20539;-91
2022/11/04 15:55:49;;;;;;;17.40;9.40;;;;;;;;;;4947547;28;20026;-90
2022/11/04 15:58:15;;;;;;;16.05;7.95;;;;;;;;;;4963758;28;20092;-92
2022/11/04 16:00:40;;;;;;;15.02;8.40;;;;;;;;;;4947803;28;20026;-90
2022/11/04 16:03:13;;;;;;;14.35;8.68;;;;;;;;;;4947681;28;20135;-91
2022/11/04 16:05:38;;;;;;;18.83;8.60;;;;;;;;;;4980267;28;20578;-92
2022/11/04 16:08:18;;;;;;;13.40;8.38;;;;;;;;;;4963322;28;20032;-91
2022/11/04 16:10:44;;;;;;;14.95;8.55;;;;;;;;;;4959407;28;20034;-91
2022/11/04 16:13:15;;;;;;;14.95;7.70;;;;;;;;;;4960112;28;20121;-92
2022/11/04 16:15:42;;;;;;;12.63;7.25;;;;;;;;;;4959860;28;20030;-91
2022/11/04 16:18:22;;;;;;;13.10;7.70;;;;;;;;;;4944281;28;20034;-91
2022/11/04 16:20:49;;;;;;;10.63;6.60;;;;;;;;;;4960229;28;20033;-92